sensor_id;sensor_type;location;lat;lon;timestamp;P1;durP1;ratioP1;P2;durP2;ratioP2
70997;SDS011;58663;52.040;4.634;2023-06-14T00:01:32;4.43;;;3.10;;
70997;SDS011;58663;52.040;4.634;2023-06-14T00:03:59;4.63;;;2.88;;
70997;SDS011;58663;52.040;4.634;2023-06-14T00:06:28;3.85;;;3.13;;
70997;SDS011;58663;52.040;4.634;2023-06-14T00:08:54;3.53;;;2.83;;
70997;SDS011;58663;52.040;4.634;2023-06-14T00:11:19;5.45;;;3.33;;
70997;SDS011;58663;52.040;4.634;2023-06-14T00:13:45;4.57;;;3.08;;
70997;SDS011;58663;52.040;4.634;2023-06-14T00:16:11;8.00;;;3.25;;
70997;SDS011;58663;52.040;4.634;2023-06-14T00:18:37;5.55;;;3.20;;
70997;SDS011;58663;52.040;4.634;2023-06-14T00:21:03;6.07;;;3.17;;
70997;SDS011;58663;52.040;4.634;2023-06-14T00:23:29;8.38;;;2.88;;
70997;SDS011;58663;52.040;4.634;2023-06-14T00:25:54;6.20;;;3.30;;
70997;SDS011;58663;52.040;4.634;2023-06-14T00:28:20;5.07;;;3.28;;
70997;SDS011;58663;52.040;4.634;2023-06-14T00:30:45;5.55;;;3.10;;
70997;SDS011;58663;52.040;4.634;2023-06-14T00:33:11;8.57;;;3.33;;
70997;SDS011;58663;52.040;4.634;2023-06-14T00:35:37;6.13;;;3.25;;
70997;SDS011;58663;52.040;4.634;2023-06-14T00:38:02;4.57;;;2.95;;
70997;SDS011;58663;52.040;4.634;2023-06-14T00:40:28;6.15;;;3.63;;
70997;SDS011;58663;52.040;4.634;2023-06-14T00:42:53;8.10;;;3.30;;
70997;SDS011;58663;52.040;4.634;2023-06-14T00:45:19;8.10;;;3.22;;
70997;SDS011;58663;52.040;4.634;2023-06-14T00:47:44;7.10;;;3.33;;
70997;SDS011;58663;52.040;4.634;2023-06-14T00:50:11;9.00;;;3.55;;
70997;SDS011;58663;52.040;4.634;2023-06-14T00:52:36;7.28;;;3.50;;
70997;SDS011;58663;52.040;4.634;2023-06-14T00:55:02;4.68;;;3.42;;
70997;SDS011;58663;52.040;4.634;2023-06-14T00:57:28;7.72;;;3.47;;
70997;SDS011;58663;52.040;4.634;2023-06-14T00:59:54;5.50;;;3.50;;
70997;SDS011;58663;52.040;4.634;2023-06-14T01:02:20;7.13;;;3.17;;
70997;SDS011;58663;52.040;4.634;2023-06-14T01:04:46;8.65;;;3.80;;
70997;SDS011;58663;52.040;4.634;2023-06-14T01:07:20;5.15;;;3.47;;
70997;SDS011;58663;52.040;4.634;2023-06-14T01:15:14;9.57;;;3.40;;
70997;SDS011;58663;52.040;4.634;2023-06-14T01:17:41;6.82;;;3.13;;
70997;SDS011;58663;52.040;4.634;2023-06-14T01:20:09;6.38;;;3.78;;
70997;SDS011;58663;52.040;4.634;2023-06-14T01:22:45;4.93;;;2.97;;
70997;SDS011;58663;52.040;4.634;2023-06-14T01:25:15;6.05;;;3.60;;
70997;SDS011;58663;52.040;4.634;2023-06-14T01:27:41;7.30;;;3.78;;
70997;SDS011;58663;52.040;4.634;2023-06-14T01:30:07;5.53;;;2.88;;
70997;SDS011;58663;52.040;4.634;2023-06-14T01:32:34;3.83;;;2.80;;
70997;SDS011;58663;52.040;4.634;2023-06-14T01:35:00;4.65;;;3.35;;
70997;SDS011;58663;52.040;4.634;2023-06-14T01:37:26;5.43;;;3.00;;
70997;SDS011;58663;52.040;4.634;2023-06-14T01:39:51;6.45;;;3.67;;
70997;SDS011;58663;52.040;4.634;2023-06-14T01:42:17;8.80;;;3.50;;
70997;SDS011;58663;52.040;4.634;2023-06-14T01:44:43;6.25;;;3.60;;
70997;SDS011;58663;52.040;4.634;2023-06-14T01:47:09;7.28;;;3.47;;
70997;SDS011;58663;52.040;4.634;2023-06-14T01:49:34;5.80;;;3.25;;
70997;SDS011;58663;52.040;4.634;2023-06-14T01:52:00;7.95;;;3.30;;
70997;SDS011;58663;52.040;4.634;2023-06-14T01:54:26;5.47;;;3.17;;
70997;SDS011;58663;52.040;4.634;2023-06-14T01:56:52;7.10;;;2.88;;
70997;SDS011;58663;52.040;4.634;2023-06-14T01:59:17;7.07;;;3.05;;
70997;SDS011;58663;52.040;4.634;2023-06-14T02:01:43;7.38;;;3.33;;
70997;SDS011;58663;52.040;4.634;2023-06-14T02:04:09;7.25;;;3.63;;
70997;SDS011;58663;52.040;4.634;2023-06-14T02:06:34;7.40;;;3.45;;
70997;SDS011;58663;52.040;4.634;2023-06-14T02:09:00;5.57;;;3.10;;
70997;SDS011;58663;52.040;4.634;2023-06-14T02:11:26;9.07;;;3.08;;
70997;SDS011;58663;52.040;4.634;2023-06-14T02:13:52;6.60;;;3.03;;
70997;SDS011;58663;52.040;4.634;2023-06-14T02:16:17;7.43;;;3.25;;
70997;SDS011;58663;52.040;4.634;2023-06-14T02:18:43;9.13;;;3.40;;
70997;SDS011;58663;52.040;4.634;2023-06-14T02:21:08;5.68;;;2.90;;
70997;SDS011;58663;52.040;4.634;2023-06-14T02:23:33;4.53;;;3.00;;
70997;SDS011;58663;52.040;4.634;2023-06-14T02:25:59;6.35;;;3.17;;
70997;SDS011;58663;52.040;4.634;2023-06-14T02:28:24;6.32;;;3.50;;
70997;SDS011;58663;52.040;4.634;2023-06-14T02:30:49;13.80;;;3.55;;
70997;SDS011;58663;52.040;4.634;2023-06-14T02:33:15;4.35;;;3.45;;
70997;SDS011;58663;52.040;4.634;2023-06-14T02:35:40;5.53;;;3.08;;
70997;SDS011;58663;52.040;4.634;2023-06-14T02:38:05;4.95;;;3.35;;
70997;SDS011;58663;52.040;4.634;2023-06-14T02:40:31;5.72;;;3.05;;
70997;SDS011;58663;52.040;4.634;2023-06-14T02:42:56;5.68;;;3.10;;
70997;SDS011;58663;52.040;4.634;2023-06-14T02:45:21;9.35;;;3.72;;
70997;SDS011;58663;52.040;4.634;2023-06-14T02:47:47;7.13;;;3.40;;
70997;SDS011;58663;52.040;4.634;2023-06-14T02:50:13;6.60;;;3.30;;
70997;SDS011;58663;52.040;4.634;2023-06-14T02:52:38;5.90;;;3.40;;
70997;SDS011;58663;52.040;4.634;2023-06-14T02:55:06;6.85;;;3.60;;
70997;SDS011;58663;52.040;4.634;2023-06-14T02:57:33;5.00;;;3.33;;
70997;SDS011;58663;52.040;4.634;2023-06-14T02:59:58;6.70;;;4.10;;
70997;SDS011;58663;52.040;4.634;2023-06-14T03:02:23;7.25;;;3.20;;
70997;SDS011;58663;52.040;4.634;2023-06-14T03:04:49;5.70;;;3.53;;
70997;SDS011;58663;52.040;4.634;2023-06-14T03:07:15;4.78;;;3.00;;
70997;SDS011;58663;52.040;4.634;2023-06-14T03:09:44;12.30;;;4.03;;
70997;SDS011;58663;52.040;4.634;2023-06-14T03:12:10;4.18;;;3.00;;
70997;SDS011;58663;52.040;4.634;2023-06-14T03:14:36;6.72;;;3.53;;
70997;SDS011;58663;52.040;4.634;2023-06-14T03:17:02;8.30;;;3.60;;
70997;SDS011;58663;52.040;4.634;2023-06-14T03:19:29;4.38;;;2.97;;
70997;SDS011;58663;52.040;4.634;2023-06-14T03:21:55;5.53;;;2.90;;
70997;SDS011;58663;52.040;4.634;2023-06-14T03:24:22;8.32;;;3.75;;
70997;SDS011;58663;52.040;4.634;2023-06-14T03:26:49;4.78;;;2.92;;
70997;SDS011;58663;52.040;4.634;2023-06-14T03:29:14;6.35;;;3.13;;
70997;SDS011;58663;52.040;4.634;2023-06-14T03:31:56;6.82;;;2.92;;
70997;SDS011;58663;52.040;4.634;2023-06-14T03:34:23;5.10;;;3.15;;
70997;SDS011;58663;52.040;4.634;2023-06-14T03:36:48;4.88;;;2.90;;
70997;SDS011;58663;52.040;4.634;2023-06-14T03:39:14;6.15;;;3.25;;
70997;SDS011;58663;52.040;4.634;2023-06-14T03:41:39;5.80;;;2.80;;
70997;SDS011;58663;52.040;4.634;2023-06-14T03:44:05;4.70;;;3.13;;
70997;SDS011;58663;52.040;4.634;2023-06-14T03:46:30;5.90;;;3.00;;
70997;SDS011;58663;52.040;4.634;2023-06-14T03:48:56;4.47;;;2.60;;
70997;SDS011;58663;52.040;4.634;2023-06-14T03:51:22;6.15;;;3.45;;
70997;SDS011;58663;52.040;4.634;2023-06-14T03:53:47;6.85;;;3.00;;
70997;SDS011;58663;52.040;4.634;2023-06-14T03:56:13;7.75;;;3.45;;
70997;SDS011;58663;52.040;4.634;2023-06-14T03:58:38;8.07;;;2.97;;
70997;SDS011;58663;52.040;4.634;2023-06-14T04:01:03;5.13;;;3.08;;
70997;SDS011;58663;52.040;4.634;2023-06-14T04:03:29;8.13;;;3.25;;
70997;SDS011;58663;52.040;4.634;2023-06-14T04:05:54;13.40;;;3.25;;
70997;SDS011;58663;52.040;4.634;2023-06-14T04:08:21;6.05;;;3.10;;
70997;SDS011;58663;52.040;4.634;2023-06-14T04:10:47;17.10;;;3.40;;
70997;SDS011;58663;52.040;4.634;2023-06-14T04:13:12;6.53;;;2.80;;
70997;SDS011;58663;52.040;4.634;2023-06-14T04:15:38;5.13;;;3.22;;
70997;SDS011;58663;52.040;4.634;2023-06-14T04:18:07;7.40;;;3.20;;
70997;SDS011;58663;52.040;4.634;2023-06-14T04:20:32;9.15;;;3.20;;
70997;SDS011;58663;52.040;4.634;2023-06-14T04:23:10;9.18;;;3.40;;
70997;SDS011;58663;52.040;4.634;2023-06-14T04:25:39;8.50;;;3.20;;
70997;SDS011;58663;52.040;4.634;2023-06-14T04:28:05;7.68;;;2.65;;
70997;SDS011;58663;52.040;4.634;2023-06-14T04:30:30;6.35;;;3.08;;
70997;SDS011;58663;52.040;4.634;2023-06-14T04:32:56;6.57;;;2.90;;
70997;SDS011;58663;52.040;4.634;2023-06-14T04:35:22;6.72;;;3.38;;
70997;SDS011;58663;52.040;4.634;2023-06-14T04:37:49;5.15;;;2.80;;
70997;SDS011;58663;52.040;4.634;2023-06-14T04:40:14;8.40;;;3.50;;
70997;SDS011;58663;52.040;4.634;2023-06-14T04:42:40;8.88;;;3.10;;
70997;SDS011;58663;52.040;4.634;2023-06-14T04:45:06;5.63;;;3.10;;
70997;SDS011;58663;52.040;4.634;2023-06-14T04:47:32;4.60;;;3.00;;
70997;SDS011;58663;52.040;4.634;2023-06-14T04:49:59;10.75;;;3.33;;
70997;SDS011;58663;52.040;4.634;2023-06-14T04:52:25;5.30;;;3.03;;
70997;SDS011;58663;52.040;4.634;2023-06-14T04:54:52;5.93;;;3.20;;
70997;SDS011;58663;52.040;4.634;2023-06-14T04:57:19;6.57;;;3.00;;
70997;SDS011;58663;52.040;4.634;2023-06-14T04:59:47;8.77;;;3.20;;
70997;SDS011;58663;52.040;4.634;2023-06-14T05:02:12;3.42;;;3.13;;
70997;SDS011;58663;52.040;4.634;2023-06-14T05:04:39;9.77;;;3.47;;
70997;SDS011;58663;52.040;4.634;2023-06-14T05:07:08;7.72;;;3.13;;
70997;SDS011;58663;52.040;4.634;2023-06-14T05:09:34;8.40;;;3.25;;
70997;SDS011;58663;52.040;4.634;2023-06-14T05:12:00;7.10;;;3.00;;
70997;SDS011;58663;52.040;4.634;2023-06-14T05:14:26;5.43;;;2.80;;
70997;SDS011;58663;52.040;4.634;2023-06-14T05:16:51;8.70;;;2.63;;
70997;SDS011;58663;52.040;4.634;2023-06-14T05:19:18;5.38;;;2.90;;
70997;SDS011;58663;52.040;4.634;2023-06-14T05:21:43;6.32;;;2.85;;
70997;SDS011;58663;52.040;4.634;2023-06-14T05:24:09;5.25;;;2.95;;
70997;SDS011;58663;52.040;4.634;2023-06-14T05:26:36;9.63;;;3.25;;
70997;SDS011;58663;52.040;4.634;2023-06-14T05:29:01;10.90;;;2.70;;
70997;SDS011;58663;52.040;4.634;2023-06-14T05:31:28;7.05;;;3.00;;
70997;SDS011;58663;52.040;4.634;2023-06-14T05:33:53;5.68;;;3.03;;
70997;SDS011;58663;52.040;4.634;2023-06-14T05:36:19;6.10;;;2.80;;
70997;SDS011;58663;52.040;4.634;2023-06-14T05:38:46;12.60;;;3.78;;
70997;SDS011;58663;52.040;4.634;2023-06-14T05:41:11;6.68;;;3.08;;
70997;SDS011;58663;52.040;4.634;2023-06-14T05:43:37;11.60;;;2.95;;
70997;SDS011;58663;52.040;4.634;2023-06-14T05:46:02;11.05;;;3.92;;
70997;SDS011;58663;52.040;4.634;2023-06-14T05:48:28;9.65;;;2.85;;
70997;SDS011;58663;52.040;4.634;2023-06-14T05:50:54;10.80;;;3.15;;
70997;SDS011;58663;52.040;4.634;2023-06-14T05:53:19;7.38;;;2.90;;
70997;SDS011;58663;52.040;4.634;2023-06-14T05:55:44;5.70;;;3.00;;
70997;SDS011;58663;52.040;4.634;2023-06-14T05:58:10;10.10;;;3.05;;
70997;SDS011;58663;52.040;4.634;2023-06-14T06:00:35;8.32;;;3.70;;
70997;SDS011;58663;52.040;4.634;2023-06-14T06:03:01;7.03;;;3.53;;
70997;SDS011;58663;52.040;4.634;2023-06-14T06:05:26;6.05;;;2.97;;
70997;SDS011;58663;52.040;4.634;2023-06-14T06:07:52;14.38;;;3.40;;
70997;SDS011;58663;52.040;4.634;2023-06-14T06:10:17;12.32;;;3.58;;
70997;SDS011;58663;52.040;4.634;2023-06-14T06:12:42;10.77;;;2.90;;
70997;SDS011;58663;52.040;4.634;2023-06-14T06:15:08;6.90;;;3.38;;
70997;SDS011;58663;52.040;4.634;2023-06-14T06:17:37;6.10;;;2.70;;
70997;SDS011;58663;52.040;4.634;2023-06-14T06:20:02;10.05;;;3.33;;
70997;SDS011;58663;52.040;4.634;2023-06-14T06:22:30;11.23;;;3.72;;
70997;SDS011;58663;52.040;4.634;2023-06-14T06:24:55;7.07;;;2.72;;
70997;SDS011;58663;52.040;4.634;2023-06-14T06:27:21;7.93;;;2.95;;
70997;SDS011;58663;52.040;4.634;2023-06-14T06:29:46;8.68;;;3.67;;
70997;SDS011;58663;52.040;4.634;2023-06-14T06:32:13;8.00;;;3.60;;
70997;SDS011;58663;52.040;4.634;2023-06-14T06:34:39;5.35;;;3.30;;
70997;SDS011;58663;52.040;4.634;2023-06-14T06:37:04;6.82;;;2.85;;
70997;SDS011;58663;52.040;4.634;2023-06-14T06:39:31;4.20;;;2.80;;
70997;SDS011;58663;52.040;4.634;2023-06-14T06:41:56;10.15;;;2.90;;
70997;SDS011;58663;52.040;4.634;2023-06-14T06:44:21;4.30;;;2.60;;
70997;SDS011;58663;52.040;4.634;2023-06-14T06:46:47;10.60;;;3.10;;
70997;SDS011;58663;52.040;4.634;2023-06-14T06:49:12;5.18;;;2.95;;
70997;SDS011;58663;52.040;4.634;2023-06-14T06:51:40;10.77;;;3.85;;
70997;SDS011;58663;52.040;4.634;2023-06-14T06:54:07;6.63;;;3.17;;
70997;SDS011;58663;52.040;4.634;2023-06-14T06:56:33;5.43;;;3.30;;
70997;SDS011;58663;52.040;4.634;2023-06-14T06:58:58;6.80;;;3.35;;
70997;SDS011;58663;52.040;4.634;2023-06-14T07:01:24;5.22;;;2.80;;
70997;SDS011;58663;52.040;4.634;2023-06-14T07:03:51;6.25;;;3.20;;
70997;SDS011;58663;52.040;4.634;2023-06-14T07:06:16;8.23;;;3.17;;
70997;SDS011;58663;52.040;4.634;2023-06-14T07:08:45;5.07;;;2.72;;
70997;SDS011;58663;52.040;4.634;2023-06-14T07:11:11;5.13;;;3.30;;
70997;SDS011;58663;52.040;4.634;2023-06-14T07:13:36;5.65;;;3.20;;
70997;SDS011;58663;52.040;4.634;2023-06-14T07:16:03;3.90;;;3.13;;
70997;SDS011;58663;52.040;4.634;2023-06-14T07:18:29;10.90;;;3.22;;
70997;SDS011;58663;52.040;4.634;2023-06-14T07:20:55;11.77;;;3.30;;
70997;SDS011;58663;52.040;4.634;2023-06-14T07:23:22;5.22;;;3.20;;
70997;SDS011;58663;52.040;4.634;2023-06-14T07:25:48;7.18;;;3.42;;
70997;SDS011;58663;52.040;4.634;2023-06-14T07:28:13;7.43;;;2.97;;
70997;SDS011;58663;52.040;4.634;2023-06-14T07:30:38;5.97;;;3.10;;
70997;SDS011;58663;52.040;4.634;2023-06-14T07:33:04;5.03;;;3.15;;
70997;SDS011;58663;52.040;4.634;2023-06-14T07:35:29;4.25;;;2.90;;
70997;SDS011;58663;52.040;4.634;2023-06-14T07:37:55;10.55;;;3.20;;
70997;SDS011;58663;52.040;4.634;2023-06-14T07:40:20;6.47;;;3.28;;
70997;SDS011;58663;52.040;4.634;2023-06-14T07:42:46;6.88;;;3.22;;
70997;SDS011;58663;52.040;4.634;2023-06-14T07:45:12;7.85;;;3.47;;
70997;SDS011;58663;52.040;4.634;2023-06-14T07:47:38;9.68;;;3.35;;
70997;SDS011;58663;52.040;4.634;2023-06-14T07:50:04;11.65;;;3.38;;
70997;SDS011;58663;52.040;4.634;2023-06-14T07:52:30;8.90;;;3.33;;
70997;SDS011;58663;52.040;4.634;2023-06-14T07:54:55;7.07;;;3.22;;
70997;SDS011;58663;52.040;4.634;2023-06-14T07:57:21;7.47;;;3.25;;
70997;SDS011;58663;52.040;4.634;2023-06-14T07:59:47;6.97;;;3.00;;
70997;SDS011;58663;52.040;4.634;2023-06-14T08:02:12;5.63;;;3.10;;
70997;SDS011;58663;52.040;4.634;2023-06-14T08:04:38;7.10;;;3.00;;
70997;SDS011;58663;52.040;4.634;2023-06-14T08:07:03;4.53;;;2.90;;
70997;SDS011;58663;52.040;4.634;2023-06-14T08:09:29;5.70;;;3.08;;
70997;SDS011;58663;52.040;4.634;2023-06-14T08:11:55;6.05;;;3.00;;
70997;SDS011;58663;52.040;4.634;2023-06-14T08:14:20;4.57;;;3.28;;
70997;SDS011;58663;52.040;4.634;2023-06-14T08:16:46;8.65;;;3.45;;
70997;SDS011;58663;52.040;4.634;2023-06-14T08:19:11;7.55;;;2.85;;
70997;SDS011;58663;52.040;4.634;2023-06-14T08:21:37;10.98;;;3.40;;
70997;SDS011;58663;52.040;4.634;2023-06-14T08:24:02;8.13;;;3.38;;
70997;SDS011;58663;52.040;4.634;2023-06-14T08:26:28;5.72;;;2.80;;
70997;SDS011;58663;52.040;4.634;2023-06-14T08:28:55;6.25;;;3.25;;
70997;SDS011;58663;52.040;4.634;2023-06-14T08:31:20;6.03;;;2.75;;
70997;SDS011;58663;52.040;4.634;2023-06-14T08:33:46;8.20;;;3.45;;
70997;SDS011;58663;52.040;4.634;2023-06-14T08:36:11;9.85;;;3.20;;
70997;SDS011;58663;52.040;4.634;2023-06-14T08:38:37;6.90;;;3.08;;
70997;SDS011;58663;52.040;4.634;2023-06-14T08:41:04;6.30;;;3.08;;
70997;SDS011;58663;52.040;4.634;2023-06-14T08:43:33;9.02;;;3.22;;
70997;SDS011;58663;52.040;4.634;2023-06-14T08:46:00;5.85;;;2.55;;
70997;SDS011;58663;52.040;4.634;2023-06-14T08:48:27;6.75;;;3.10;;
70997;SDS011;58663;52.040;4.634;2023-06-14T08:50:54;4.95;;;2.75;;
70997;SDS011;58663;52.040;4.634;2023-06-14T08:53:26;5.88;;;2.92;;
70997;SDS011;58663;52.040;4.634;2023-06-14T08:55:53;5.60;;;2.90;;
70997;SDS011;58663;52.040;4.634;2023-06-14T08:58:20;5.70;;;2.85;;
70997;SDS011;58663;52.040;4.634;2023-06-14T09:00:49;7.28;;;3.00;;
70997;SDS011;58663;52.040;4.634;2023-06-14T09:03:15;3.88;;;2.72;;
70997;SDS011;58663;52.040;4.634;2023-06-14T09:05:40;5.70;;;2.80;;
70997;SDS011;58663;52.040;4.634;2023-06-14T09:08:06;5.43;;;2.65;;
70997;SDS011;58663;52.040;4.634;2023-06-14T09:10:32;7.32;;;2.67;;
70997;SDS011;58663;52.040;4.634;2023-06-14T09:13:02;6.72;;;2.85;;
70997;SDS011;58663;52.040;4.634;2023-06-14T09:15:28;4.18;;;2.70;;
70997;SDS011;58663;52.040;4.634;2023-06-14T09:17:53;8.88;;;2.90;;
70997;SDS011;58663;52.040;4.634;2023-06-14T09:20:19;11.50;;;2.95;;
70997;SDS011;58663;52.040;4.634;2023-06-14T09:22:44;10.35;;;2.78;;
70997;SDS011;58663;52.040;4.634;2023-06-14T09:25:10;4.28;;;2.50;;
70997;SDS011;58663;52.040;4.634;2023-06-14T09:27:38;5.10;;;2.78;;
70997;SDS011;58663;52.040;4.634;2023-06-14T09:30:05;5.40;;;2.42;;
70997;SDS011;58663;52.040;4.634;2023-06-14T09:32:35;5.45;;;2.67;;
70997;SDS011;58663;52.040;4.634;2023-06-14T09:35:01;7.85;;;2.80;;
70997;SDS011;58663;52.040;4.634;2023-06-14T09:37:30;10.82;;;3.10;;
70997;SDS011;58663;52.040;4.634;2023-06-14T09:39:57;3.15;;;2.42;;
70997;SDS011;58663;52.040;4.634;2023-06-14T09:42:23;5.05;;;2.55;;
70997;SDS011;58663;52.040;4.634;2023-06-14T09:44:50;10.23;;;2.70;;
70997;SDS011;58663;52.040;4.634;2023-06-14T09:47:17;5.25;;;2.65;;
70997;SDS011;58663;52.040;4.634;2023-06-14T09:49:42;5.65;;;2.42;;
70997;SDS011;58663;52.040;4.634;2023-06-14T09:52:10;3.67;;;2.70;;
70997;SDS011;58663;52.040;4.634;2023-06-14T09:54:42;6.95;;;2.83;;
70997;SDS011;58663;52.040;4.634;2023-06-14T09:57:10;7.47;;;2.50;;
70997;SDS011;58663;52.040;4.634;2023-06-14T09:59:36;5.78;;;2.33;;
70997;SDS011;58663;52.040;4.634;2023-06-14T10:02:07;6.63;;;2.42;;
70997;SDS011;58663;52.040;4.634;2023-06-14T10:04:36;2.92;;;2.40;;
70997;SDS011;58663;52.040;4.634;2023-06-14T10:07:02;4.63;;;2.47;;
70997;SDS011;58663;52.040;4.634;2023-06-14T10:09:28;11.27;;;2.35;;
70997;SDS011;58663;52.040;4.634;2023-06-14T10:11:55;3.92;;;2.20;;
70997;SDS011;58663;52.040;4.634;2023-06-14T10:14:20;3.28;;;1.88;;
70997;SDS011;58663;52.040;4.634;2023-06-14T10:17:06;4.22;;;2.00;;
70997;SDS011;58663;52.040;4.634;2023-06-14T10:19:37;6.05;;;2.15;;
70997;SDS011;58663;52.040;4.634;2023-06-14T10:22:09;2.50;;;2.20;;
70997;SDS011;58663;52.040;4.634;2023-06-14T10:27:08;3.28;;;2.15;;
70997;SDS011;58663;52.040;4.634;2023-06-14T10:32:17;3.72;;;2.13;;
70997;SDS011;58663;52.040;4.634;2023-06-14T10:34:44;4.22;;;2.08;;
70997;SDS011;58663;52.040;4.634;2023-06-14T10:37:13;7.25;;;2.47;;
70997;SDS011;58663;52.040;4.634;2023-06-14T10:39:42;8.50;;;2.17;;
70997;SDS011;58663;52.040;4.634;2023-06-14T10:42:12;7.35;;;1.98;;
70997;SDS011;58663;52.040;4.634;2023-06-14T10:44:50;8.43;;;2.42;;
70997;SDS011;58663;52.040;4.634;2023-06-14T10:50:02;2.17;;;1.60;;
70997;SDS011;58663;52.040;4.634;2023-06-14T10:52:29;3.15;;;1.80;;
70997;SDS011;58663;52.040;4.634;2023-06-14T10:55:07;3.42;;;1.80;;
70997;SDS011;58663;52.040;4.634;2023-06-14T10:57:50;4.28;;;1.80;;
70997;SDS011;58663;52.040;4.634;2023-06-14T11:00:21;2.30;;;2.05;;
70997;SDS011;58663;52.040;4.634;2023-06-14T11:05:15;4.33;;;1.63;;
70997;SDS011;58663;52.040;4.634;2023-06-14T11:08:13;2.03;;;1.60;;
70997;SDS011;58663;52.040;4.634;2023-06-14T11:10:42;1.98;;;1.77;;
70997;SDS011;58663;52.040;4.634;2023-06-14T11:13:10;7.97;;;1.83;;
70997;SDS011;58663;52.040;4.634;2023-06-14T11:15:36;5.25;;;1.80;;
70997;SDS011;58663;52.040;4.634;2023-06-14T11:18:02;10.40;;;1.90;;
70997;SDS011;58663;52.040;4.634;2023-06-14T11:20:30;3.42;;;1.67;;
70997;SDS011;58663;52.040;4.634;2023-06-14T11:22:56;2.88;;;1.75;;
70997;SDS011;58663;52.040;4.634;2023-06-14T11:25:22;2.72;;;1.60;;
70997;SDS011;58663;52.040;4.634;2023-06-14T11:27:49;2.78;;;1.52;;
70997;SDS011;58663;52.040;4.634;2023-06-14T11:30:15;5.45;;;1.83;;
70997;SDS011;58663;52.040;4.634;2023-06-14T11:32:40;7.35;;;1.65;;
70997;SDS011;58663;52.040;4.634;2023-06-14T11:35:06;4.32;;;1.80;;
70997;SDS011;58663;52.040;4.634;2023-06-14T11:37:31;2.00;;;1.52;;
70997;SDS011;58663;52.040;4.634;2023-06-14T11:40:00;1.65;;;1.55;;
70997;SDS011;58663;52.040;4.634;2023-06-14T11:42:26;3.22;;;1.92;;
70997;SDS011;58663;52.040;4.634;2023-06-14T11:44:52;2.05;;;1.85;;
70997;SDS011;58663;52.040;4.634;2023-06-14T11:47:18;2.92;;;1.65;;
70997;SDS011;58663;52.040;4.634;2023-06-14T11:49:43;6.63;;;1.42;;
70997;SDS011;58663;52.040;4.634;2023-06-14T11:52:09;1.83;;;1.42;;
70997;SDS011;58663;52.040;4.634;2023-06-14T11:54:36;4.20;;;1.70;;
70997;SDS011;58663;52.040;4.634;2023-06-14T11:57:02;2.70;;;1.60;;
70997;SDS011;58663;52.040;4.634;2023-06-14T11:59:27;4.25;;;1.95;;
70997;SDS011;58663;52.040;4.634;2023-06-14T12:01:53;6.50;;;1.60;;
70997;SDS011;58663;52.040;4.634;2023-06-14T12:04:26;2.42;;;1.70;;
70997;SDS011;58663;52.040;4.634;2023-06-14T12:06:52;4.60;;;1.70;;
70997;SDS011;58663;52.040;4.634;2023-06-14T12:09:18;3.92;;;1.80;;
70997;SDS011;58663;52.040;4.634;2023-06-14T12:11:44;5.13;;;1.75;;
70997;SDS011;58663;52.040;4.634;2023-06-14T12:14:10;4.35;;;1.52;;
70997;SDS011;58663;52.040;4.634;2023-06-14T12:16:38;3.00;;;2.00;;
70997;SDS011;58663;52.040;4.634;2023-06-14T12:19:25;3.60;;;1.90;;
70997;SDS011;58663;52.040;4.634;2023-06-14T12:21:51;2.08;;;1.65;;
70997;SDS011;58663;52.040;4.634;2023-06-14T12:24:17;4.78;;;1.85;;
70997;SDS011;58663;52.040;4.634;2023-06-14T12:26:42;2.45;;;1.80;;
70997;SDS011;58663;52.040;4.634;2023-06-14T12:29:08;2.78;;;1.83;;
70997;SDS011;58663;52.040;4.634;2023-06-14T12:31:33;3.03;;;1.60;;
70997;SDS011;58663;52.040;4.634;2023-06-14T12:33:59;3.25;;;1.70;;
70997;SDS011;58663;52.040;4.634;2023-06-14T12:36:24;2.15;;;1.70;;
70997;SDS011;58663;52.040;4.634;2023-06-14T12:38:51;10.32;;;1.90;;
70997;SDS011;58663;52.040;4.634;2023-06-14T12:41:18;2.35;;;2.03;;
70997;SDS011;58663;52.040;4.634;2023-06-14T12:43:46;6.15;;;1.80;;
70997;SDS011;58663;52.040;4.634;2023-06-14T12:46:11;3.50;;;1.60;;
70997;SDS011;58663;52.040;4.634;2023-06-14T12:48:37;4.95;;;1.60;;
70997;SDS011;58663;52.040;4.634;2023-06-14T12:51:02;4.32;;;1.40;;
70997;SDS011;58663;52.040;4.634;2023-06-14T12:53:28;7.07;;;2.00;;
70997;SDS011;58663;52.040;4.634;2023-06-14T12:55:53;11.73;;;2.00;;
70997;SDS011;58663;52.040;4.634;2023-06-14T12:58:18;4.22;;;1.67;;
70997;SDS011;58663;52.040;4.634;2023-06-14T13:00:44;3.83;;;1.70;;
70997;SDS011;58663;52.040;4.634;2023-06-14T13:03:10;2.70;;;1.80;;
70997;SDS011;58663;52.040;4.634;2023-06-14T13:05:36;3.05;;;1.52;;
70997;SDS011;58663;52.040;4.634;2023-06-14T13:08:02;1.80;;;1.45;;
70997;SDS011;58663;52.040;4.634;2023-06-14T13:10:27;5.65;;;1.70;;
70997;SDS011;58663;52.040;4.634;2023-06-14T13:12:53;7.90;;;1.63;;
70997;SDS011;58663;52.040;4.634;2023-06-14T13:15:18;5.07;;;1.55;;
70997;SDS011;58663;52.040;4.634;2023-06-14T13:17:44;5.95;;;1.95;;
70997;SDS011;58663;52.040;4.634;2023-06-14T13:20:13;4.20;;;1.77;;
70997;SDS011;58663;52.040;4.634;2023-06-14T13:22:39;2.88;;;1.60;;
70997;SDS011;58663;52.040;4.634;2023-06-14T13:25:04;4.10;;;1.92;;
70997;SDS011;58663;52.040;4.634;2023-06-14T13:27:30;3.05;;;1.73;;
70997;SDS011;58663;52.040;4.634;2023-06-14T13:29:56;2.65;;;1.83;;
70997;SDS011;58663;52.040;4.634;2023-06-14T13:32:21;5.32;;;1.70;;
70997;SDS011;58663;52.040;4.634;2023-06-14T13:34:47;5.50;;;1.63;;
70997;SDS011;58663;52.040;4.634;2023-06-14T13:37:12;3.47;;;1.80;;
70997;SDS011;58663;52.040;4.634;2023-06-14T13:39:38;5.30;;;1.90;;
70997;SDS011;58663;52.040;4.634;2023-06-14T13:42:04;3.50;;;1.60;;
70997;SDS011;58663;52.040;4.634;2023-06-14T13:44:30;3.10;;;1.80;;
70997;SDS011;58663;52.040;4.634;2023-06-14T13:46:55;5.05;;;2.13;;
70997;SDS011;58663;52.040;4.634;2023-06-14T13:49:20;2.38;;;1.50;;
70997;SDS011;58663;52.040;4.634;2023-06-14T13:51:46;3.15;;;1.70;;
70997;SDS011;58663;52.040;4.634;2023-06-14T13:54:14;5.43;;;1.90;;
70997;SDS011;58663;52.040;4.634;2023-06-14T13:56:40;4.78;;;2.00;;
70997;SDS011;58663;52.040;4.634;2023-06-14T13:59:06;4.45;;;1.60;;
70997;SDS011;58663;52.040;4.634;2023-06-14T14:01:31;3.53;;;1.65;;
70997;SDS011;58663;52.040;4.634;2023-06-14T14:03:57;8.27;;;1.85;;
70997;SDS011;58663;52.040;4.634;2023-06-14T14:06:23;4.20;;;1.60;;
70997;SDS011;58663;52.040;4.634;2023-06-14T14:08:48;4.63;;;1.55;;
70997;SDS011;58663;52.040;4.634;2023-06-14T14:11:14;5.20;;;1.95;;
70997;SDS011;58663;52.040;4.634;2023-06-14T14:13:41;3.17;;;1.50;;
70997;SDS011;58663;52.040;4.634;2023-06-14T14:16:07;2.00;;;1.67;;
70997;SDS011;58663;52.040;4.634;2023-06-14T14:18:33;3.45;;;1.67;;
70997;SDS011;58663;52.040;4.634;2023-06-14T14:20:58;4.60;;;1.90;;
70997;SDS011;58663;52.040;4.634;2023-06-14T14:23:23;3.17;;;1.52;;
70997;SDS011;58663;52.040;4.634;2023-06-14T14:25:49;2.03;;;1.67;;
70997;SDS011;58663;52.040;4.634;2023-06-14T14:28:14;3.83;;;1.42;;
70997;SDS011;58663;52.040;4.634;2023-06-14T14:30:41;6.05;;;1.90;;
70997;SDS011;58663;52.040;4.634;2023-06-14T14:33:07;2.15;;;1.60;;
70997;SDS011;58663;52.040;4.634;2023-06-14T14:35:32;5.45;;;1.80;;
70997;SDS011;58663;52.040;4.634;2023-06-14T14:37:58;3.10;;;1.63;;
70997;SDS011;58663;52.040;4.634;2023-06-14T14:40:23;2.10;;;1.60;;
70997;SDS011;58663;52.040;4.634;2023-06-14T14:42:49;2.63;;;1.60;;
70997;SDS011;58663;52.040;4.634;2023-06-14T14:45:14;5.60;;;1.77;;
70997;SDS011;58663;52.040;4.634;2023-06-14T14:47:40;4.38;;;1.65;;
70997;SDS011;58663;52.040;4.634;2023-06-14T14:50:05;7.10;;;2.13;;
70997;SDS011;58663;52.040;4.634;2023-06-14T14:52:34;5.47;;;1.70;;
70997;SDS011;58663;52.040;4.634;2023-06-14T14:54:59;3.83;;;1.60;;
70997;SDS011;58663;52.040;4.634;2023-06-14T14:57:25;4.25;;;1.73;;